Catàleg de serveis del Meteocat
Campanya meteocatpedra

Dades de l'estació automàtica Canaletes

?
?
Resum diari 21:30 TU
Dades diàries de l'estació meteorològica
Temperatura mitjana 24.1 °C
Temperatura màxima 30.6 °C 11:04 TU
Temperatura mínima 17.8 °C 3:21 TU
Humitat relativa mitjana 63%
Precipitació acumulada 0.0 mm
Ratxa màxima del vent (2 m) 31.0 km/h - 161º 13:29 TU
Irradiació solar global 23.4 MJ/m2

El tram horari està expressat en Temps Universal (TU). Cal sumar una hora en horari d'hivern i dues en horari d'estiu per passar a l'hora oficial.

Canaletes

Metadades estació meteorol´gica
Municipi Mediona
Comarca Alt Penedès
Altitud 325 m
Data alta 17.05.2002
Estat actual Operativa
Dades de període
Període
TU
TM
°C
TX
°C
TN
°C
HRM
%
PPT
mm
VVM (2 m)
km/h
DVM (2 m)
graus
VVX (2 m)
km/h
RS
W/m2
00:00 - 00:30 19.3 19.6 19.2 75 0.0 1.8 328 5.8 0
00:30 - 01:00 19.2 19.4 19.0 74 0.0 1.1 285 3.6 0
01:00 - 01:30 19.0 19.4 18.7 76 0.0 1.8 333 8.6 0
01:30 - 02:00 19.3 19.5 19.0 75 0.0 3.2 325 12.6 0
02:00 - 02:30 18.7 19.0 18.4 77 0.0 3.2 296 7.9 0
02:30 - 03:00 18.4 18.5 18.2 79 0.0 4.3 310 12.6 0
03:00 - 03:30 18.1 18.3 17.8 80 0.0 3.2 311 8.3 0
03:30 - 04:00 18.5 18.6 18.3 78 0.0 5.0 306 10.4 0
04:00 - 04:30 18.4 18.5 18.3 78 0.0 5.4 321 10.8 0
04:30 - 05:00 18.2 18.4 18.0 79 0.0 4.0 327 8.6 8
05:00 - 05:30 18.6 19.1 18.2 78 0.0 3.2 333 8.3 46
05:30 - 06:00 20.1 20.8 19.2 73 0.0 4.3 345 11.9 121
06:00 - 06:30 20.8 21.8 19.8 72 0.0 3.2 46 14.8 190
06:30 - 07:00 22.2 22.5 21.9 67 0.0 7.2 321 15.8 338
07:00 - 07:30 22.2 22.4 21.9 69 0.0 4.3 348 12.6 188
07:30 - 08:00 23.1 23.5 22.5 67 0.0 6.1 343 17.6 265
08:00 - 08:30 24.5 25.4 23.3 62 0.0 7.9 333 19.4 541
08:30 - 09:00 25.2 25.9 24.8 59 0.0 7.6 336 15.5 364
09:00 - 09:30 25.9 26.7 24.9 57 0.0 8.3 341 18.0 585
09:30 - 10:00 27.3 28.0 26.5 51 0.0 5.8 342 18.0 710
10:00 - 10:30 28.2 29.1 27.2 48 0.0 4.3 325 13.3 861
10:30 - 11:00 29.3 30.0 28.6 44 0.0 4.3 191 12.6 854
11:00 - 11:30 29.3 30.6 28.7 44 0.0 5.4 137 16.2 440
11:30 - 12:00 29.2 29.9 28.9 45 0.0 7.2 175 17.6 469
12:00 - 12:30 29.9 30.4 29.4 47 0.0 10.8 195 22.3 697
12:30 - 13:00 29.7 30.3 28.9 48 0.0 13.0 191 25.9 790
13:00 - 13:30 29.7 30.4 29.1 47 0.0 14.0 191 31.0 773
13:30 - 14:00 30.0 30.5 29.4 45 0.0 14.0 182 26.3 880
14:00 - 14:30 29.5 30.1 28.9 46 0.0 14.8 186 25.2 735
14:30 - 15:00 28.7 29.2 28.4 48 0.0 13.7 174 26.3 600
15:00 - 15:30 28.3 29.0 27.9 48 0.0 11.9 177 22.3 424
15:30 - 16:00 28.8 29.4 28.5 47 0.0 13.7 170 25.2 623
16:00 - 16:30 28.4 28.7 27.9 46 0.0 13.0 181 26.3 388
16:30 - 17:00 27.5 28.0 27.2 49 0.0 15.1 181 29.9 412
17:00 - 17:30 26.8 27.3 26.3 52 0.0 14.4 184 27.4 329
17:30 - 18:00 26.0 26.3 25.6 55 0.0 13.0 185 24.1 226
18:00 - 18:30 25.3 25.7 24.7 60 0.0 10.4 177 23.0 133
18:30 - 19:00 24.2 24.7 23.8 68 0.0 10.1 174 19.4 52
19:00 - 19:30 23.4 23.8 23.1 73 0.0 9.0 170 16.6 7
19:30 - 20:00 22.8 23.0 22.5 78 0.0 7.2 174 14.0 0
20:00 - 20:30 22.3 22.5 22.2 81 0.0 5.4 181 10.8 0
20:30 - 21:00 22.1 22.2 21.9 82 0.0 3.2 151 7.6 0
21:00 - 21:30 22.0 22.2 21.8 82 0.0 2.5 127 5.0 0
21:30 - 22:00 22.1 22.2 22.0 83 0.0 3.2 139 6.5 0

Les dades en taronja només han passat un control de qualitat automàtic. Resta pendent la seva validació definitiva.